createdAt,value
2023-05-20T00:00:49.216Z,0.38
2023-05-20T00:03:51.849Z,0.52
2023-05-20T00:06:54.969Z,0.30
2023-05-20T00:09:57.379Z,0.57
2023-05-20T00:12:59.810Z,0.88
2023-05-20T00:16:02.512Z,0.40
2023-05-20T00:19:05.054Z,0.40
2023-05-20T00:22:13.860Z,0.40
2023-05-20T00:25:17.097Z,1.10
2023-05-20T00:28:19.922Z,1.00
2023-05-20T00:31:22.582Z,0.55
2023-05-20T00:34:25.042Z,0.28
2023-05-20T00:37:27.984Z,0.40
2023-05-20T00:40:30.523Z,0.67
2023-05-20T00:43:32.918Z,2.00
2023-05-20T00:46:35.815Z,0.40
2023-05-20T00:49:38.839Z,0.63
2023-05-20T00:52:45.420Z,1.27
2023-05-20T00:55:47.822Z,0.53
2023-05-20T00:58:51.018Z,0.30
2023-05-20T01:01:53.848Z,0.30
2023-05-20T01:04:57.043Z,0.22
2023-05-20T01:07:59.431Z,0.20
2023-05-20T01:11:09.208Z,0.30
2023-05-20T01:14:13.715Z,0.30
2023-05-20T01:17:21.224Z,0.63
2023-05-20T01:20:25.180Z,0.40
2023-05-20T01:23:53.614Z,0.28
2023-05-20T01:26:58.181Z,0.30
2023-05-20T01:30:01.115Z,0.90
2023-05-20T01:33:11.518Z,0.40
2023-05-20T01:36:14.429Z,0.43
2023-05-20T01:39:17.941Z,0.50
2023-05-20T01:42:21.447Z,0.43
2023-05-20T01:45:25.353Z,0.70
2023-05-20T01:48:27.780Z,0.20
2023-05-20T01:51:31.461Z,0.60
2023-05-20T01:54:34.011Z,0.45
2023-05-20T01:57:36.593Z,0.30
2023-05-20T02:00:40.355Z,0.37
2023-05-20T02:03:43.005Z,0.55
2023-05-20T02:06:46.102Z,0.52
2023-05-20T02:09:48.773Z,0.20
2023-05-20T02:12:51.251Z,0.50
2023-05-20T02:15:53.771Z,0.60
2023-05-20T02:18:58.679Z,0.70
2023-05-20T02:22:01.410Z,0.68
2023-05-20T02:25:04.128Z,0.20
2023-05-20T02:28:10.801Z,0.30
2023-05-20T02:31:13.618Z,0.63
2023-05-20T02:34:17.918Z,0.25
2023-05-20T02:37:20.546Z,0.57
2023-05-20T02:40:23.132Z,0.30
2023-05-20T02:43:26.360Z,0.30
2023-05-20T02:46:29.102Z,0.40
2023-05-20T02:49:31.752Z,0.70
2023-05-20T02:52:34.930Z,0.20
2023-05-20T02:55:37.745Z,0.50
2023-05-20T02:58:40.234Z,0.20
2023-05-20T03:01:43.074Z,0.30
2023-05-20T03:04:46.921Z,0.50
2023-05-20T03:07:50.146Z,0.20
2023-05-20T03:10:52.540Z,0.30
2023-05-20T03:13:55.229Z,0.33
2023-05-20T03:16:57.972Z,0.20
2023-05-20T03:20:01.927Z,0.50
2023-05-20T03:23:05.194Z,0.43
2023-05-20T03:26:07.750Z,0.30
2023-05-20T03:29:11.037Z,0.50
2023-05-20T03:32:13.920Z,0.20
2023-05-20T03:35:16.922Z,0.80
2023-05-20T03:38:19.523Z,0.63
2023-05-20T03:41:22.419Z,0.60
2023-05-20T03:44:25.020Z,0.40
2023-05-20T03:47:28.210Z,0.30
2023-05-20T03:50:31.309Z,0.75
2023-05-20T03:53:33.900Z,0.35
2023-05-20T03:56:36.686Z,0.20
2023-05-20T03:59:39.358Z,0.20
2023-05-20T04:02:42.046Z,0.20
2023-05-20T04:05:45.424Z,0.30
2023-05-20T04:08:55.471Z,0.50
2023-05-20T04:11:58.358Z,0.30
2023-05-20T04:15:03.618Z,0.27
2023-05-20T04:18:13.900Z,0.80
2023-05-20T04:21:17.066Z,0.77
2023-05-20T04:24:19.592Z,0.30
2023-05-20T04:27:22.296Z,0.60
2023-05-20T04:30:24.835Z,0.23
2023-05-20T04:33:27.600Z,0.43
2023-05-20T04:36:31.216Z,0.50
2023-05-20T04:39:36.452Z,0.50
2023-05-20T04:42:40.002Z,0.45
2023-05-20T04:45:42.894Z,0.20
2023-05-20T04:48:48.269Z,0.47
2023-05-20T04:51:52.322Z,0.40
2023-05-20T04:54:57.950Z,0.45
2023-05-20T04:58:00.995Z,0.47
2023-05-20T05:01:04.516Z,0.30
2023-05-20T05:04:07.164Z,0.57
2023-05-20T05:07:09.643Z,0.20
2023-05-20T05:10:12.764Z,0.63
2023-05-20T05:13:16.557Z,0.35
2023-05-20T05:16:19.155Z,1.00
2023-05-20T05:19:22.178Z,0.53
2023-05-20T05:22:24.961Z,0.70
2023-05-20T05:25:27.495Z,0.85
2023-05-20T05:28:30.213Z,0.70
2023-05-20T05:31:33.864Z,0.40
2023-05-20T05:34:36.257Z,0.90
2023-05-20T05:37:39.499Z,1.23
2023-05-20T05:40:42.355Z,0.52
2023-05-20T05:43:45.525Z,0.38
2023-05-20T05:46:48.246Z,0.50
2023-05-20T05:49:50.785Z,0.40
2023-05-20T05:52:53.321Z,0.40
2023-05-20T05:55:56.735Z,0.70
2023-05-20T05:58:59.321Z,0.77
2023-05-20T06:02:02.302Z,0.70
2023-05-20T06:05:05.291Z,0.37
2023-05-20T06:08:07.762Z,0.52
2023-05-20T06:11:12.151Z,1.00
2023-05-20T06:14:14.564Z,0.73
2023-05-20T06:17:17.078Z,0.50
2023-05-20T06:20:19.617Z,0.40
2023-05-20T06:23:22.337Z,0.70
2023-05-20T06:26:30.942Z,1.02
2023-05-20T06:29:33.890Z,1.35
2023-05-20T06:32:37.092Z,0.40
2023-05-20T06:35:39.655Z,0.40
2023-05-20T06:38:42.111Z,0.60
2023-05-20T06:41:44.730Z,0.70
2023-05-20T06:44:54.231Z,0.98
2023-05-20T06:48:08.267Z,0.40
2023-05-20T06:51:10.734Z,1.07
2023-05-20T06:54:14.425Z,0.93
2023-05-20T06:57:17.875Z,0.82
2023-05-20T07:00:21.086Z,0.60
2023-05-20T07:03:23.833Z,0.47
2023-05-20T07:06:27.154Z,1.03
2023-05-20T07:09:29.853Z,0.75
2023-05-20T07:12:36.040Z,0.80
2023-05-20T07:15:39.393Z,0.65
2023-05-20T07:18:42.000Z,0.57
2023-05-20T07:21:44.452Z,0.90
2023-05-20T07:25:10.821Z,0.98
2023-05-20T07:28:16.296Z,0.90
2023-05-20T07:31:20.292Z,0.90
2023-05-20T07:34:23.851Z,1.03
2023-05-20T07:37:27.692Z,0.87
2023-05-20T07:40:30.358Z,0.93
2023-05-20T07:43:32.784Z,0.77
2023-05-20T07:46:35.528Z,0.77
2023-05-20T07:49:39.468Z,0.60
2023-05-20T07:52:55.152Z,0.70
2023-05-20T07:56:00.614Z,1.25
2023-05-20T07:59:04.939Z,0.70
2023-05-20T08:02:13.635Z,1.15
2023-05-20T08:05:16.850Z,1.13
2023-05-20T08:08:20.755Z,0.73
2023-05-20T08:11:30.841Z,0.40
2023-05-20T08:14:34.140Z,1.08
2023-05-20T08:17:36.753Z,0.70
2023-05-20T08:20:39.472Z,0.70
2023-05-20T08:23:41.871Z,1.07
2023-05-20T08:26:44.319Z,0.80
2023-05-20T08:29:46.778Z,0.88
2023-05-20T08:32:49.283Z,0.60
2023-05-20T08:35:51.895Z,0.80
2023-05-20T08:38:54.407Z,0.60
2023-05-20T08:41:58.181Z,0.65
2023-05-20T08:45:01.934Z,0.80
2023-05-20T08:48:06.604Z,1.48
2023-05-20T08:51:11.226Z,0.63
2023-05-20T08:54:16.932Z,0.80
2023-05-20T08:57:20.401Z,0.93
2023-05-20T09:00:27.537Z,0.50
2023-05-20T09:03:30.645Z,0.98
2023-05-20T09:06:43.858Z,0.70
2023-05-20T09:09:46.348Z,0.60
2023-05-20T09:12:50.181Z,1.13
2023-05-20T09:15:52.685Z,0.90
2023-05-20T09:18:56.987Z,0.50
2023-05-20T09:21:59.546Z,0.73
2023-05-20T09:25:02.526Z,0.90
2023-05-20T09:28:07.555Z,1.05
2023-05-20T09:31:10.179Z,0.90
2023-05-20T09:34:13.263Z,1.73
2023-05-20T09:37:21.700Z,0.80
2023-05-20T09:40:28.406Z,1.00
2023-05-20T09:43:31.046Z,0.98
2023-05-20T09:46:34.919Z,1.15
2023-05-20T09:49:38.050Z,0.73
2023-05-20T09:52:42.204Z,0.85
2023-05-20T09:55:45.631Z,1.07
2023-05-20T09:58:50.216Z,0.70
2023-05-20T10:01:53.417Z,0.70
2023-05-20T10:04:59.400Z,1.40
2023-05-20T10:08:29.768Z,0.82
2023-05-20T10:11:52.617Z,0.63
2023-05-20T10:15:13.147Z,0.95
2023-05-20T10:18:36.781Z,1.35
2023-05-20T10:21:39.388Z,0.93
2023-05-20T10:24:44.637Z,0.70
2023-05-20T10:27:48.220Z,1.70
2023-05-20T10:30:51.740Z,1.00
2023-05-20T10:33:54.776Z,0.98
2023-05-20T10:36:58.563Z,1.00
2023-05-20T10:40:11.688Z,1.00
2023-05-20T10:43:15.860Z,1.20
2023-05-20T10:46:31.830Z,0.98
2023-05-20T10:49:47.626Z,1.20
2023-05-20T10:52:50.225Z,1.25
2023-05-20T10:55:54.989Z,0.80
2023-05-20T10:58:57.722Z,0.90
2023-05-20T11:02:02.563Z,0.90
2023-05-20T11:05:06.742Z,0.93
2023-05-20T11:08:20.525Z,1.10
2023-05-20T11:11:30.921Z,1.52
2023-05-20T11:14:33.438Z,0.60
2023-05-20T11:17:35.896Z,0.93
2023-05-20T11:20:38.600Z,0.77
2023-05-20T11:23:42.041Z,0.93
2023-05-20T11:26:45.154Z,1.00
2023-05-20T11:29:50.872Z,0.77
2023-05-20T11:33:01.689Z,1.00
2023-05-20T11:36:08.648Z,0.80
2023-05-20T11:39:16.014Z,0.80
2023-05-20T11:42:18.433Z,0.85
2023-05-20T11:45:21.130Z,0.97
2023-05-20T11:48:24.695Z,1.02
2023-05-20T11:51:28.367Z,1.05
2023-05-20T11:54:36.123Z,1.33
2023-05-20T11:57:38.821Z,1.42
2023-05-20T12:00:50.670Z,1.27
2023-05-20T12:03:57.576Z,1.15
2023-05-20T12:07:00.216Z,1.00
2023-05-20T12:10:03.995Z,1.10
2023-05-20T12:13:08.964Z,1.48
2023-05-20T12:16:11.449Z,0.97
2023-05-20T12:19:14.035Z,1.10
2023-05-20T12:22:16.777Z,1.48
2023-05-20T12:25:20.647Z,1.10
2023-05-20T12:28:23.423Z,0.98
2023-05-20T12:31:26.416Z,1.30
2023-05-20T12:34:29.233Z,1.40
2023-05-20T12:37:31.682Z,1.20
2023-05-20T12:40:34.939Z,1.30
2023-05-20T12:43:37.774Z,1.90
2023-05-20T12:46:40.471Z,1.37
2023-05-20T12:49:43.153Z,1.30
2023-05-20T12:52:45.740Z,1.75
2023-05-20T12:55:48.185Z,1.55
2023-05-20T12:58:51.407Z,1.63
2023-05-20T13:01:54.120Z,0.93
2023-05-20T13:04:56.599Z,1.23
2023-05-20T13:07:58.941Z,1.20
2023-05-20T13:11:01.667Z,1.13
2023-05-20T13:14:04.392Z,1.30
2023-05-20T13:17:07.110Z,1.40
2023-05-20T13:20:11.117Z,1.27
2023-05-20T13:23:13.525Z,1.10
2023-05-20T13:26:17.732Z,2.30
2023-05-20T13:29:21.189Z,1.60
2023-05-20T13:32:23.671Z,1.83
2023-05-20T13:35:26.245Z,1.70
2023-05-20T13:38:28.738Z,1.52
2023-05-20T13:41:31.213Z,1.95
2023-05-20T13:44:33.575Z,1.90
2023-05-20T13:47:36.346Z,1.70
2023-05-20T13:50:38.965Z,1.98
2023-05-20T13:53:41.494Z,1.98
2023-05-20T13:56:44.125Z,1.90
2023-05-20T13:59:46.625Z,1.67
2023-05-20T14:02:49.262Z,2.03
2023-05-20T14:05:51.831Z,1.70
2023-05-20T14:08:55.033Z,1.63
2023-05-20T14:11:57.548Z,2.20
2023-05-20T14:15:00.152Z,2.13
2023-05-20T14:18:02.962Z,2.00
2023-05-20T14:21:05.614Z,1.00
2023-05-20T14:24:07.958Z,2.15
2023-05-20T14:27:11.550Z,1.10
2023-05-20T14:30:14.091Z,1.70
2023-05-20T14:33:16.912Z,1.60
2023-05-20T14:36:19.385Z,1.83
2023-05-20T14:39:21.843Z,2.28
2023-05-20T14:42:24.250Z,1.65
2023-05-20T14:45:26.696Z,1.00
2023-05-20T14:48:29.273Z,1.40
2023-05-20T14:51:31.902Z,1.55
2023-05-20T14:54:34.609Z,2.08
2023-05-20T14:57:37.416Z,1.85
2023-05-20T15:00:40.120Z,2.20
2023-05-20T15:03:42.881Z,0.90
2023-05-20T15:06:45.329Z,1.17
2023-05-20T15:09:48.015Z,2.13
2023-05-20T15:12:51.361Z,2.08
2023-05-20T15:15:54.387Z,1.45
2023-05-20T15:18:56.802Z,0.80
2023-05-20T15:21:59.950Z,0.70
2023-05-20T15:25:02.341Z,0.95
2023-05-20T15:28:04.966Z,0.82
2023-05-20T15:31:07.713Z,1.20
2023-05-20T15:34:10.234Z,1.50
2023-05-20T15:37:12.727Z,0.52
2023-05-20T15:40:16.740Z,0.70
2023-05-20T15:43:19.763Z,1.00
2023-05-20T15:46:24.177Z,1.55
2023-05-20T15:49:26.892Z,1.57
2023-05-20T15:52:29.313Z,1.00
2023-05-20T15:55:31.776Z,0.60
2023-05-20T15:58:34.126Z,0.70
2023-05-20T16:01:37.993Z,0.80
2023-05-20T16:04:42.101Z,0.70
2023-05-20T16:07:46.704Z,0.80
2023-05-20T16:10:49.632Z,0.90
2023-05-20T16:13:52.333Z,0.80
2023-05-20T16:16:54.805Z,0.88
2023-05-20T16:19:57.182Z,1.00
2023-05-20T16:22:59.722Z,1.10
2023-05-20T16:26:02.338Z,0.73
2023-05-20T16:29:04.716Z,1.55
2023-05-20T16:32:07.399Z,0.80
2023-05-20T16:35:10.079Z,0.83
2023-05-20T16:38:12.520Z,1.13
2023-05-20T16:41:16.323Z,0.70
2023-05-20T16:44:18.962Z,0.55
2023-05-20T16:47:21.413Z,1.02
2023-05-20T16:50:23.884Z,0.60
2023-05-20T16:53:26.310Z,0.75
2023-05-20T16:56:28.734Z,0.70
2023-05-20T16:59:32.543Z,0.80
2023-05-20T17:02:35.185Z,0.60
2023-05-20T17:05:37.704Z,0.80
2023-05-20T17:08:40.187Z,0.75
2023-05-20T17:11:43.350Z,0.98
2023-05-20T17:14:46.171Z,0.57
2023-05-20T17:17:48.649Z,0.57
2023-05-20T17:20:51.661Z,0.50
2023-05-20T17:23:54.387Z,0.43
2023-05-20T17:26:56.863Z,0.52
2023-05-20T17:29:59.732Z,1.10
2023-05-20T17:33:02.403Z,0.85
2023-05-20T17:36:05.061Z,0.60
2023-05-20T17:39:09.570Z,0.40
2023-05-20T17:42:12.037Z,0.60
2023-05-20T17:45:15.087Z,0.30
2023-05-20T17:48:17.811Z,0.70
2023-05-20T17:51:20.980Z,0.70
2023-05-20T17:54:23.370Z,0.60
2023-05-20T17:57:25.878Z,0.50
2023-05-20T18:00:28.633Z,0.88
2023-05-20T18:03:31.131Z,0.70
2023-05-20T18:06:34.772Z,0.60
2023-05-20T18:09:37.246Z,0.55
2023-05-20T18:12:39.702Z,1.08
2023-05-20T18:15:42.161Z,0.40
2023-05-20T18:18:44.793Z,0.47
2023-05-20T18:21:47.190Z,0.37
2023-05-20T18:24:49.724Z,0.70
2023-05-20T18:27:52.547Z,0.50
2023-05-20T18:30:55.744Z,0.80
2023-05-20T18:33:58.224Z,0.90
2023-05-20T18:37:00.991Z,0.90
2023-05-20T18:40:03.898Z,0.38
2023-05-20T18:43:06.434Z,0.40
2023-05-20T18:46:08.910Z,0.52
2023-05-20T18:49:11.555Z,0.60
2023-05-20T18:52:14.521Z,0.50
2023-05-20T18:55:16.980Z,0.60
2023-05-20T18:58:19.577Z,0.45
2023-05-20T19:01:22.427Z,1.33
2023-05-20T19:04:26.103Z,0.50
2023-05-20T19:07:28.521Z,0.67
2023-05-20T19:10:31.185Z,0.70
2023-05-20T19:13:34.404Z,0.50
2023-05-20T19:16:37.892Z,0.80
2023-05-20T19:19:40.830Z,0.40
2023-05-20T19:22:43.293Z,0.80
2023-05-20T19:25:46.133Z,0.50
2023-05-20T19:28:48.499Z,0.40
2023-05-20T19:31:51.177Z,0.45
2023-05-20T19:34:53.585Z,0.63
2023-05-20T19:37:56.115Z,0.40
2023-05-20T19:40:58.643Z,0.40
2023-05-20T19:44:01.647Z,0.57
2023-05-20T19:47:05.919Z,0.50
2023-05-20T19:50:09.291Z,0.50
2023-05-20T19:53:11.807Z,0.83
2023-05-20T19:56:19.253Z,0.88
2023-05-20T19:59:22.009Z,1.15
2023-05-20T20:02:24.451Z,0.40
2023-05-20T20:05:27.303Z,0.90
2023-05-20T20:08:29.888Z,0.47
2023-05-20T20:11:32.309Z,1.08
2023-05-20T20:14:34.691Z,0.65
2023-05-20T20:17:37.313Z,0.40
2023-05-20T20:20:40.750Z,0.40
2023-05-20T20:23:43.566Z,0.40
2023-05-20T20:26:49.079Z,1.05
2023-05-20T20:29:51.513Z,0.40
2023-05-20T20:32:54.303Z,0.75
2023-05-20T20:35:56.946Z,0.40
2023-05-20T20:38:59.488Z,0.50
2023-05-20T20:42:03.067Z,0.60
2023-05-20T20:45:06.502Z,0.65
2023-05-20T20:48:09.110Z,0.68
2023-05-20T20:51:20.662Z,0.40
2023-05-20T20:54:23.279Z,0.50
2023-05-20T20:57:26.841Z,0.40
2023-05-20T21:00:29.384Z,1.10
2023-05-20T21:03:35.180Z,0.47
2023-05-20T21:06:37.896Z,0.63
2023-05-20T21:09:40.280Z,0.30
2023-05-20T21:12:42.753Z,0.65
2023-05-20T21:15:46.504Z,0.50
2023-05-20T21:18:49.178Z,0.90
2023-05-20T21:21:51.637Z,0.70
2023-05-20T21:24:54.024Z,0.47
2023-05-20T21:27:56.402Z,0.60
2023-05-20T21:30:58.742Z,0.55
2023-05-20T21:34:01.200Z,0.52
2023-05-20T21:37:03.571Z,0.50
2023-05-20T21:40:06.737Z,0.70
2023-05-20T21:43:09.078Z,0.70
2023-05-20T21:46:11.922Z,0.50
2023-05-20T21:49:14.314Z,0.47
2023-05-20T21:52:16.686Z,0.60
2023-05-20T21:55:23.408Z,0.33
2023-05-20T21:58:26.140Z,0.55
2023-05-20T22:01:28.656Z,0.88
2023-05-20T22:04:33.409Z,0.77
2023-05-20T22:07:35.893Z,0.47
2023-05-20T22:10:38.798Z,0.60
2023-05-20T22:13:41.466Z,0.68
2023-05-20T22:16:48.618Z,0.60
2023-05-20T22:19:51.870Z,0.70
2023-05-20T22:22:54.348Z,1.00
2023-05-20T22:25:56.913Z,0.53
2023-05-20T22:28:59.250Z,0.82
2023-05-20T22:32:01.878Z,0.38
2023-05-20T22:35:04.632Z,1.02
2023-05-20T22:38:07.050Z,0.80
2023-05-20T22:41:09.469Z,0.40
2023-05-20T22:44:11.884Z,0.80
2023-05-20T22:47:14.581Z,0.70
2023-05-20T22:50:18.247Z,0.40
2023-05-20T22:53:20.830Z,0.60
2023-05-20T22:56:23.755Z,0.70
2023-05-20T22:59:26.812Z,0.45
2023-05-20T23:02:30.555Z,0.22
2023-05-20T23:05:33.063Z,0.43
2023-05-20T23:08:35.555Z,0.47
2023-05-20T23:11:38.107Z,0.30
2023-05-20T23:14:40.634Z,0.47
2023-05-20T23:17:43.589Z,0.75
2023-05-20T23:20:47.726Z,0.45
2023-05-20T23:23:50.146Z,0.53
2023-05-20T23:26:53.949Z,0.20
2023-05-20T23:29:56.630Z,0.30
2023-05-20T23:32:59.664Z,0.50
2023-05-20T23:36:02.941Z,0.20
2023-05-20T23:39:05.385Z,0.30
2023-05-20T23:42:07.786Z,0.43
2023-05-20T23:45:10.981Z,0.55
2023-05-20T23:48:13.679Z,0.50
2023-05-20T23:51:16.439Z,0.77
2023-05-20T23:54:20.389Z,0.37
2023-05-20T23:57:22.845Z,0.93
